Malczyce, Poland
Current Conditions -  °F | °C
As of 12:30 PM on Sunday 25 Jan 2015 (Local Time) from EPWR Reporting Station
Light Snow Light Snow  
Wind Chill: 26°   Ceiling: 500
Heat Index: 34°   Visibility: 1.8mi
Dew Point: 30°   Wind: 9mph
Humidity: 87%   Direction: 330°NNW
Pressure: 30.18"   Gusts: NA
Location:  51.22°N, 16.48°E
Report Text: EPWR 251030Z 33008KT 3000 -SN BR BKN005 OVC007 01/M01 Q1022
Loading
Personal Weather Stations






























Interactive Weather Map New forecast layout! Learn more

10-Day Weather Forecast

Advertisements
Track Severe Weather on mobile